Time;durP1;ratioP1;P1;durP2;ratioP2;P2;SDS_P1;SDS_P2;PMS_P1;PMS_P2;Temp;Humidity;BMP_temperature;BMP_pressure;BME280_temperature;BME280_humidity;BME280_pressure;Samples;Min_cycle;Max_cycle;Signal;HPM_P1;HPM_P2
2023/03/10 00:00:55;;;;;;;;;;;21.10;81.30;;;;;;5058601;28;19939;-50
2023/03/10 00:03:20;;;;;;;;;;;21.10;81.40;;;;;;5076052;28;19916;-48
2023/03/10 00:05:46;;;;;;;;;;;21.10;81.10;;;;;;5076435;28;19954;-50
2023/03/10 00:08:11;;;;;;;;;;;21.10;81.50;;;;;;5076018;28;19913;-49
2023/03/10 00:10:37;;;;;;;;;;;21.10;81.50;;;;;;5076355;28;19962;-50
2023/03/10 00:13:02;;;;;;;;;;;21.10;81.30;;;;;;5076165;28;19908;-48
2023/03/10 00:15:28;;;;;;;;;;;21.20;81.40;;;;;;5075915;28;20065;-50
2023/03/10 00:17:54;;;;;;;;;;;21.10;81.20;;;;;;5076215;28;19915;-53
2023/03/10 00:20:20;;;;;;;;;;;21.20;81.60;;;;;;5076060;28;19959;-47
2023/03/10 00:22:46;;;;;;;;;;;21.20;81.10;;;;;;5076117;28;19995;-47
2023/03/10 00:25:11;;;;;;;;;;;21.10;81.60;;;;;;5058193;28;19956;-48
2023/03/10 00:27:37;;;;;;;;;;;21.10;81.50;;;;;;5076080;28;20367;-49
2023/03/10 00:30:03;;;;;;;;;;;21.10;81.80;;;;;;5075940;28;19959;-50
2023/03/10 00:32:29;;;;;;;;;;;21.00;81.50;;;;;;5075575;28;20421;-47
2023/03/10 00:34:54;;;;;;;;;;;21.00;81.40;;;;;;5076171;28;19912;-47
2023/03/10 00:37:20;;;;;;;;;;;21.00;81.30;;;;;;5075875;28;19916;-48
2023/03/10 00:39:49;;;;;;;;;;;21.00;81.90;;;;;;5075638;28;19974;-48
2023/03/10 00:42:14;;;;;;;;;;;21.00;81.80;;;;;;5076026;28;19909;-50
2023/03/10 00:44:40;;;;;;;;;;;20.90;81.80;;;;;;5075994;28;20356;-48
2023/03/10 00:47:05;;;;;;;;;;;20.90;82.00;;;;;;5075616;28;20291;-49
2023/03/10 00:49:31;;;;;;;;;;;20.90;81.50;;;;;;5075506;28;20007;-49
2023/03/10 00:51:56;;;;;;;;;;;20.90;81.70;;;;;;5075188;28;19917;-47
2023/03/10 00:54:22;;;;;;;;;;;20.90;81.70;;;;;;5075544;28;19916;-48
2023/03/10 00:56:47;;;;;;;;;;;20.90;82.20;;;;;;5075482;28;19909;-48
2023/03/10 00:59:13;;;;;;;;;;;20.90;81.90;;;;;;5075605;28;20027;-48
2023/03/10 01:01:39;;;;;;;;;;;20.90;82.10;;;;;;5075360;28;19908;-47
2023/03/10 01:04:06;;;;;;;;;;;20.90;81.70;;;;;;5075373;28;20252;-49
2023/03/10 01:06:32;;;;;;;;;;;21.00;81.80;;;;;;5057336;28;19908;-48
2023/03/10 01:08:58;;;;;;;;;;;20.90;81.60;;;;;;5074845;28;19966;-50
2023/03/10 01:11:25;;;;;;;;;;;21.00;82.10;;;;;;5075185;28;20431;-56
2023/03/10 01:13:50;;;;;;;;;;;20.90;81.70;;;;;;5074220;28;20487;-49
2023/03/10 01:16:16;;;;;;;;;;;21.00;82.10;;;;;;5075053;28;19912;-47
2023/03/10 01:18:42;;;;;;;;;;;21.00;82.20;;;;;;5074978;28;19962;-47
2023/03/10 01:21:19;;;;;;;;;;;21.00;81.90;;;;;;5074966;28;19916;-47
2023/03/10 01:23:44;;;;;;;;;;;21.00;82.10;;;;;;5057138;28;19908;-47
2023/03/10 01:26:10;;;;;;;;;;;21.00;81.90;;;;;;5074661;28;19931;-47
2023/03/10 01:28:35;;;;;;;;;;;21.00;82.10;;;;;;5074840;28;19920;-48
2023/03/10 01:31:01;;;;;;;;;;;21.00;81.70;;;;;;5074822;28;19912;-47
2023/03/10 01:33:26;;;;;;;;;;;21.00;82.30;;;;;;5074781;28;20343;-46
2023/03/10 01:35:52;;;;;;;;;;;21.00;82.10;;;;;;5074686;28;19914;-49
2023/03/10 01:38:17;;;;;;;;;;;21.00;81.80;;;;;;5074402;28;20383;-51
2023/03/10 01:40:47;;;;;;;;;;;21.10;81.50;;;;;;5074517;28;19920;-51
2023/03/10 01:43:18;;;;;;;;;;;21.10;81.70;;;;;;5074538;28;20382;-50
2023/03/10 01:45:43;;;;;;;;;;;21.10;81.50;;;;;;5074304;28;19912;-50
2023/03/10 01:48:09;;;;;;;;;;;21.10;81.50;;;;;;5074404;28;19908;-48
2023/03/10 01:50:35;;;;;;;;;;;21.10;81.20;;;;;;5074463;28;19928;-50
2023/03/10 01:53:00;;;;;;;;;;;21.20;81.40;;;;;;5074760;28;19996;-50
2023/03/10 01:55:29;;;;;;;;;;;21.20;81.30;;;;;;5074088;28;19955;-49
2023/03/10 01:57:55;;;;;;;;;;;21.20;81.30;;;;;;5074667;28;20374;-51
2023/03/10 02:00:21;;;;;;;;;;;21.20;81.30;;;;;;5074074;28;20356;-52
2023/03/10 02:02:53;;;;;;;;;;;21.20;81.30;;;;;;5074319;28;19955;-53
2023/03/10 02:05:19;;;;;;;;;;;21.20;81.20;;;;;;5074038;28;20294;-50
2023/03/10 02:07:45;;;;;;;;;;;21.20;81.10;;;;;;5074003;28;19908;-49
2023/03/10 02:10:12;;;;;;;;;;;21.20;81.30;;;;;;5073880;28;19919;-49
2023/03/10 02:12:37;;;;;;;;;;;21.20;81.10;;;;;;5073940;28;20329;-51
2023/03/10 02:15:03;;;;;;;;;;;21.20;81.40;;;;;;5074189;28;19908;-49
2023/03/10 02:17:29;;;;;;;;;;;21.10;81.20;;;;;;5074165;28;19918;-51
2023/03/10 02:19:57;;;;;;;;;;;21.20;81.70;;;;;;5073821;28;20011;-50
2023/03/10 02:22:23;;;;;;;;;;;21.10;81.30;;;;;;5073765;28;19909;-51
2023/03/10 02:24:51;;;;;;;;;;;21.10;81.30;;;;;;5073832;28;20364;-49
2023/03/10 02:27:24;;;;;;;;;;;21.10;81.40;;;;;;5073423;28;19908;-50
2023/03/10 02:29:52;;;;;;;;;;;21.10;81.50;;;;;;5073941;28;19919;-50
2023/03/10 02:32:19;;;;;;;;;;;21.10;81.70;;;;;;5073697;28;19962;-51
2023/03/10 02:34:44;;;;;;;;;;;21.00;81.70;;;;;;5073966;28;20340;-47
2023/03/10 02:37:17;;;;;;;;;;;21.00;81.80;;;;;;5074347;28;19930;-48
2023/03/10 02:39:43;;;;;;;;;;;21.00;81.80;;;;;;5074007;28;19921;-50
2023/03/10 02:42:10;;;;;;;;;;;21.00;81.50;;;;;;5073795;28;19915;-49
2023/03/10 02:44:37;;;;;;;;;;;21.00;81.70;;;;;;5073639;28;19913;-51
2023/03/10 02:47:02;;;;;;;;;;;21.00;81.40;;;;;;5073785;28;19955;-46
2023/03/10 02:49:28;;;;;;;;;;;21.00;81.60;;;;;;5073759;28;19960;-50
2023/03/10 02:51:54;;;;;;;;;;;21.00;81.30;;;;;;5073530;28;19913;-52
2023/03/10 02:54:20;;;;;;;;;;;21.00;81.60;;;;;;5073803;28;19912;-50
2023/03/10 02:56:45;;;;;;;;;;;21.00;81.40;;;;;;5073780;28;20383;-49
2023/03/10 02:59:11;;;;;;;;;;;21.00;81.50;;;;;;5073786;28;19908;-47
2023/03/10 03:01:37;;;;;;;;;;;21.00;81.60;;;;;;5073727;28;19915;-48
2023/03/10 03:04:02;;;;;;;;;;;21.00;81.80;;;;;;5073735;28;20373;-50
2023/03/10 03:06:28;;;;;;;;;;;21.00;81.50;;;;;;5073434;28;20374;-50
2023/03/10 03:08:54;;;;;;;;;;;21.00;81.60;;;;;;5073617;28;19912;-51
2023/03/10 03:11:20;;;;;;;;;;;21.00;82.00;;;;;;5074010;28;20329;-51
2023/03/10 03:13:45;;;;;;;;;;;21.00;81.40;;;;;;5073295;28;19959;-49
2023/03/10 03:16:12;;;;;;;;;;;21.00;81.50;;;;;;5073546;28;19978;-47
2023/03/10 03:18:38;;;;;;;;;;;21.00;81.70;;;;;;5073276;28;19935;-49
2023/03/10 03:21:04;;;;;;;;;;;21.00;81.40;;;;;;5073242;28;19908;-49
2023/03/10 03:23:30;;;;;;;;;;;21.00;81.40;;;;;;5073237;28;19916;-47
2023/03/10 03:25:55;;;;;;;;;;;21.00;81.60;;;;;;5073506;28;19913;-49
2023/03/10 03:28:21;;;;;;;;;;;21.00;81.60;;;;;;5073125;28;19909;-49
2023/03/10 03:30:46;;;;;;;;;;;21.00;81.50;;;;;;5073465;28;19913;-48
2023/03/10 03:33:12;;;;;;;;;;;21.00;81.40;;;;;;5073450;28;19915;-47
2023/03/10 03:35:37;;;;;;;;;;;21.00;81.70;;;;;;5073499;28;19954;-47
2023/03/10 03:38:04;;;;;;;;;;;21.00;81.70;;;;;;5075316;28;19935;-49
2023/03/10 03:40:32;;;;;;;;;;;21.00;81.50;;;;;;5076597;28;19920;-52
2023/03/10 03:42:57;;;;;;;;;;;21.00;81.30;;;;;;5076793;28;20359;-47
2023/03/10 03:45:25;;;;;;;;;;;21.00;81.60;;;;;;5076620;28;19908;-50
2023/03/10 03:47:50;;;;;;;;;;;21.00;81.40;;;;;;5076519;28;20390;-52
2023/03/10 03:50:17;;;;;;;;;;;21.10;81.50;;;;;;5076754;28;19938;-46
2023/03/10 03:52:43;;;;;;;;;;;21.10;81.30;;;;;;5077089;28;19991;-48
2023/03/10 03:55:09;;;;;;;;;;;21.10;81.40;;;;;;5076433;28;19963;-51
2023/03/10 03:57:35;;;;;;;;;;;21.10;81.40;;;;;;5076687;28;20367;-49
2023/03/10 04:00:01;;;;;;;;;;;21.10;81.00;;;;;;5076645;28;19995;-52
2023/03/10 04:02:26;;;;;;;;;;;21.10;81.50;;;;;;5076301;28;20364;-51
2023/03/10 04:04:52;;;;;;;;;;;21.10;81.10;;;;;;5076242;28;19918;-47
2023/03/10 04:07:18;;;;;;;;;;;21.20;81.30;;;;;;5076479;28;19908;-53
2023/03/10 04:09:43;;;;;;;;;;;21.10;81.10;;;;;;5058399;28;19919;-50
2023/03/10 04:12:09;;;;;;;;;;;21.20;81.20;;;;;;5076151;28;19920;-50
2023/03/10 04:14:36;;;;;;;;;;;21.20;81.30;;;;;;5075906;28;19908;-53
2023/03/10 04:17:02;;;;;;;;;;;21.10;81.00;;;;;;5075975;28;19915;-47
2023/03/10 04:19:27;;;;;;;;;;;21.10;81.40;;;;;;5076306;28;19908;-51
2023/03/10 04:21:52;;;;;;;;;;;21.10;81.20;;;;;;5076229;28;19908;-51
2023/03/10 04:24:18;;;;;;;;;;;21.10;81.30;;;;;;5075947;28;19909;-49
2023/03/10 04:26:43;;;;;;;;;;;21.10;81.20;;;;;;5075743;28;19995;-49
2023/03/10 04:29:09;;;;;;;;;;;21.10;81.30;;;;;;5076110;28;19916;-49
2023/03/10 04:31:35;;;;;;;;;;;21.10;81.20;;;;;;5075726;28;20291;-51
2023/03/10 04:34:00;;;;;;;;;;;21.10;81.20;;;;;;5057934;28;19908;-46
2023/03/10 04:36:26;;;;;;;;;;;21.10;81.50;;;;;;5075749;28;19916;-46
2023/03/10 04:38:51;;;;;;;;;;;21.10;81.00;;;;;;5075830;28;19924;-48
2023/03/10 04:41:17;;;;;;;;;;;21.10;81.00;;;;;;5075974;28;19920;-49
2023/03/10 04:43:42;;;;;;;;;;;21.10;81.50;;;;;;5075393;28;19916;-50
2023/03/10 04:46:08;;;;;;;;;;;21.10;81.10;;;;;;5075668;28;19908;-50
2023/03/10 04:48:34;;;;;;;;;;;21.10;81.10;;;;;;5074629;28;19912;-50
2023/03/10 04:51:00;;;;;;;;;;;21.10;80.90;;;;;;5075381;28;20274;-50
2023/03/10 04:53:26;;;;;;;;;;;21.10;81.00;;;;;;5055236;28;19982;-51
2023/03/10 04:55:52;;;;;;;;;;;21.00;81.20;;;;;;5061785;28;19913;-50
2023/03/10 04:58:17;;;;;;;;;;;21.10;81.30;;;;;;5053205;28;19916;-49
2023/03/10 05:00:43;;;;;;;;;;;21.10;79.40;;;;;;5054347;28;20352;-49
2023/03/10 05:03:09;;;;;;;;;;;20.70;75.20;;;;;;5074372;28;19913;-50
2023/03/10 05:05:35;;;;;;;;;;;20.80;79.60;;;;;;5072926;28;19944;-51
2023/03/10 05:08:00;;;;;;;;;;;20.90;79.60;;;;;;5075234;28;19908;-49
2023/03/10 05:10:26;;;;;;;;;;;20.90;80.30;;;;;;5072394;28;19923;-51
2023/03/10 05:12:52;;;;;;;;;;;21.00;80.40;;;;;;5075101;28;20402;-46
2023/03/10 05:15:17;;;;;;;;;;;20.90;80.70;;;;;;5072554;28;19913;-48
2023/03/10 05:17:43;;;;;;;;;;;20.90;80.80;;;;;;5074689;28;19923;-46
2023/03/10 05:20:09;;;;;;;;;;;21.00;80.90;;;;;;5073836;28;19912;-53
2023/03/10 05:22:36;;;;;;;;;;;21.00;80.50;;;;;;5073298;28;19916;-51
2023/03/10 05:25:02;;;;;;;;;;;21.00;80.80;;;;;;5054583;28;20344;-50
2023/03/10 05:27:27;;;;;;;;;;;21.00;80.60;;;;;;5069353;28;19973;-47
2023/03/10 05:29:52;;;;;;;;;;;21.00;80.80;;;;;;5055741;28;19947;-51
2023/03/10 05:32:18;;;;;;;;;;;21.00;80.50;;;;;;5071977;28;20386;-50
2023/03/10 05:34:43;;;;;;;;;;;21.00;80.80;;;;;;5073302;28;19970;-48
2023/03/10 05:37:09;;;;;;;;;;;21.00;80.70;;;;;;5056425;28;19908;-51
2023/03/10 05:39:34;;;;;;;;;;;21.00;80.70;;;;;;5073075;28;19908;-49
2023/03/10 05:42:00;;;;;;;;;;;21.00;80.70;;;;;;5074209;28;19920;-53
2023/03/10 05:44:26;;;;;;;;;;;21.00;80.70;;;;;;5073959;28;19960;-50
2023/03/10 05:46:51;;;;;;;;;;;21.00;80.60;;;;;;5073069;28;19913;-54
2023/03/10 05:49:17;;;;;;;;;;;21.00;80.70;;;;;;5074247;28;20271;-49
2023/03/10 05:51:42;;;;;;;;;;;21.00;81.00;;;;;;5073120;28;19912;-49
2023/03/10 05:54:08;;;;;;;;;;;20.90;80.80;;;;;;5074135;28;19912;-53
2023/03/10 05:56:33;;;;;;;;;;;20.90;80.90;;;;;;5072458;28;19909;-48
2023/03/10 05:58:59;;;;;;;;;;;20.90;81.00;;;;;;5074206;28;19912;-48
2023/03/10 06:01:25;;;;;;;;;;;20.90;81.10;;;;;;5071526;28;20003;-53
2023/03/10 06:03:50;;;;;;;;;;;20.80;81.00;;;;;;5072856;28;19939;-50
2023/03/10 06:06:16;;;;;;;;;;;20.80;81.20;;;;;;5073890;28;20303;-48
2023/03/10 06:08:41;;;;;;;;;;;20.80;81.30;;;;;;5072436;28;19960;-48
2023/03/10 06:11:07;;;;;;;;;;;20.80;81.20;;;;;;5074009;28;20320;-52
2023/03/10 06:13:33;;;;;;;;;;;20.70;81.20;;;;;;5073129;28;19912;-51
2023/03/10 06:15:59;;;;;;;;;;;20.80;81.30;;;;;;5073172;28;19913;-50
2023/03/10 06:18:25;;;;;;;;;;;20.80;81.30;;;;;;5073568;28;19909;-50
2023/03/10 06:20:52;;;;;;;;;;;20.80;81.10;;;;;;5070739;28;19912;-54
2023/03/10 06:23:18;;;;;;;;;;;20.80;81.00;;;;;;5072682;28;19923;-51
2023/03/10 06:25:43;;;;;;;;;;;20.80;80.90;;;;;;5071278;28;19909;-66
2023/03/10 06:28:10;;;;;;;;;;;20.90;80.80;;;;;;5073800;28;20370;-66
2023/03/10 06:30:36;;;;;;;;;;;20.90;80.90;;;;;;5072377;28;20019;-66
2023/03/10 06:33:01;;;;;;;;;;;20.90;81.20;;;;;;5070667;28;20007;-65
2023/03/10 06:35:27;;;;;;;;;;;21.00;81.00;;;;;;5072714;28;19982;-65
2023/03/10 06:37:53;;;;;;;;;;;21.00;81.10;;;;;;5071996;28;19930;-62
2023/03/10 06:40:18;;;;;;;;;;;21.00;81.60;;;;;;5070967;28;19920;-67
2023/03/10 06:42:44;;;;;;;;;;;21.00;81.10;;;;;;5073615;28;19912;-67
2023/03/10 06:45:12;;;;;;;;;;;21.10;81.70;;;;;;5054780;28;19912;-65
2023/03/10 06:47:38;;;;;;;;;;;21.10;81.50;;;;;;5053846;28;19955;-68
2023/03/10 06:50:04;;;;;;;;;;;21.10;81.80;;;;;;5066345;28;19920;-67
2023/03/10 06:52:31;;;;;;;;;;;21.20;81.90;;;;;;5073559;28;19912;-67
2023/03/10 06:54:57;;;;;;;;;;;21.10;81.90;;;;;;5073353;28;19984;-67
2023/03/10 06:57:22;;;;;;;;;;;21.10;81.80;;;;;;5073115;28;19908;-66
2023/03/10 06:59:48;;;;;;;;;;;21.20;81.90;;;;;;5073035;28;19909;-66
2023/03/10 07:02:13;;;;;;;;;;;21.20;81.60;;;;;;5073115;28;19962;-67
2023/03/10 07:04:39;;;;;;;;;;;21.20;81.80;;;;;;5069743;28;20267;-65
2023/03/10 07:07:04;;;;;;;;;;;21.20;80.90;;;;;;5071365;28;19912;-59
2023/03/10 07:09:30;;;;;;;;;;;21.30;81.60;;;;;;5082608;28;20041;-62
2023/03/10 07:11:55;;;;;;;;;;;21.30;81.50;;;;;;5075044;28;19923;-61
2023/03/10 07:14:20;;;;;;;;;;;21.30;81.50;;;;;;5077483;28;19932;-60
2023/03/10 07:16:46;;;;;;;;;;;21.40;81.50;;;;;;5083606;28;19955;-64
2023/03/10 07:19:12;;;;;;;;;;;21.30;81.60;;;;;;5076430;28;20283;-63
2023/03/10 07:21:37;;;;;;;;;;;21.30;81.20;;;;;;5077381;28;19948;-63
2023/03/10 07:24:03;;;;;;;;;;;21.30;81.70;;;;;;5072494;28;19912;-63
2023/03/10 07:26:28;;;;;;;;;;;21.30;81.80;;;;;;5093626;28;19915;-63
2023/03/10 07:28:54;;;;;;;;;;;21.30;81.80;;;;;;5074814;28;19922;-63
2023/03/10 07:31:19;;;;;;;;;;;21.30;82.00;;;;;;5058082;28;20351;-64
2023/03/10 07:33:45;;;;;;;;;;;21.20;81.80;;;;;;5071070;28;20484;-64
2023/03/10 07:36:11;;;;;;;;;;;21.20;82.40;;;;;;5056112;28;19944;-64
2023/03/10 07:38:37;;;;;;;;;;;21.20;82.00;;;;;;5076171;28;20382;-64
2023/03/10 07:41:09;;;;;;;;;;;21.10;81.90;;;;;;5071131;28;20007;-61
2023/03/10 07:43:35;;;;;;;;;;;21.10;81.90;;;;;;5084917;28;19920;-61
2023/03/10 07:46:07;;;;;;;;;;;21.10;82.00;;;;;;5077226;28;19921;-59
2023/03/10 07:48:33;;;;;;;;;;;21.10;81.80;;;;;;5045236;28;19915;-58
2023/03/10 07:50:59;;;;;;;;;;;21.10;82.10;;;;;;5072648;28;19918;-60
2023/03/10 07:53:24;;;;;;;;;;;21.10;82.10;;;;;;5071710;28;19912;-62
2023/03/10 07:55:50;;;;;;;;;;;21.10;82.00;;;;;;5070909;28;20296;-62
2023/03/10 07:58:16;;;;;;;;;;;21.10;82.00;;;;;;5069237;28;19923;-60
2023/03/10 08:00:41;;;;;;;;;;;21.10;81.90;;;;;;5071771;28;20397;-59
2023/03/10 08:03:07;;;;;;;;;;;21.20;82.00;;;;;;5072544;28;19913;-63
2023/03/10 08:05:32;;;;;;;;;;;21.20;82.00;;;;;;5075105;28;19909;-62
2023/03/10 08:07:58;;;;;;;;;;;21.20;82.00;;;;;;5075424;28;19913;-57
2023/03/10 08:10:24;;;;;;;;;;;21.20;82.00;;;;;;5076168;28;19912;-56
2023/03/10 08:12:49;;;;;;;;;;;21.20;81.90;;;;;;5074224;28;19917;-60
2023/03/10 08:15:15;;;;;;;;;;;21.20;81.90;;;;;;5074237;28;20003;-59
2023/03/10 08:17:41;;;;;;;;;;;21.20;82.00;;;;;;5079402;28;20374;-62
2023/03/10 08:20:07;;;;;;;;;;;21.20;81.80;;;;;;5076473;28;19951;-62
2023/03/10 08:22:32;;;;;;;;;;;21.30;81.90;;;;;;5073919;28;20256;-62
2023/03/10 08:24:58;;;;;;;;;;;21.30;81.90;;;;;;5056403;28;20008;-63
2023/03/10 08:27:24;;;;;;;;;;;21.30;82.00;;;;;;5072912;28;20356;-61
2023/03/10 08:29:50;;;;;;;;;;;21.30;82.00;;;;;;5073230;28;19916;-63
2023/03/10 08:32:16;;;;;;;;;;;21.30;82.00;;;;;;5071886;28;19927;-63
2023/03/10 08:34:42;;;;;;;;;;;21.20;82.10;;;;;;5074867;28;19913;-62
2023/03/10 08:37:07;;;;;;;;;;;21.30;82.10;;;;;;5074140;28;19923;-62
2023/03/10 08:39:33;;;;;;;;;;;21.20;82.10;;;;;;5074540;28;19913;-64
2023/03/10 08:41:58;;;;;;;;;;;21.20;82.10;;;;;;5074100;28;19978;-62
2023/03/10 08:44:24;;;;;;;;;;;21.30;82.20;;;;;;5076095;28;19916;-62
2023/03/10 08:46:49;;;;;;;;;;;21.30;82.30;;;;;;5074738;28;19913;-60
2023/03/10 08:49:16;;;;;;;;;;;21.20;82.10;;;;;;5074053;28;19917;-61
2023/03/10 08:51:41;;;;;;;;;;;21.20;82.30;;;;;;5073456;28;20255;-61
2023/03/10 08:54:07;;;;;;;;;;;21.20;82.40;;;;;;5073613;28;19912;-62
2023/03/10 08:56:33;;;;;;;;;;;21.20;82.50;;;;;;5073411;28;19966;-62
2023/03/10 08:58:59;;;;;;;;;;;21.20;82.50;;;;;;5057341;28;20244;-57
2023/03/10 09:01:26;;;;;;;;;;;21.10;82.60;;;;;;5075300;28;19909;-60
2023/03/10 09:03:51;;;;;;;;;;;21.10;82.60;;;;;;5073336;28;19920;-61
2023/03/10 09:06:17;;;;;;;;;;;21.10;82.80;;;;;;5073974;28;19913;-61
2023/03/10 09:08:42;;;;;;;;;;;21.00;82.70;;;;;;5075030;28;19912;-62
2023/03/10 09:11:09;;;;;;;;;;;21.00;82.80;;;;;;5055401;28;19920;-62
2023/03/10 09:13:34;;;;;;;;;;;21.00;82.90;;;;;;5073279;28;19912;-61
2023/03/10 09:16:00;;;;;;;;;;;21.00;82.90;;;;;;5075965;28;20434;-62
2023/03/10 09:18:25;;;;;;;;;;;21.00;83.00;;;;;;5071270;28;20005;-63
2023/03/10 09:20:51;;;;;;;;;;;21.00;83.00;;;;;;5073432;28;19916;-63
2023/03/10 09:23:16;;;;;;;;;;;21.00;83.10;;;;;;5074537;28;20271;-63
2023/03/10 09:25:42;;;;;;;;;;;21.00;83.00;;;;;;5072303;28;19920;-59
2023/03/10 09:28:08;;;;;;;;;;;21.00;83.00;;;;;;5069906;28;19916;-62
2023/03/10 09:30:36;;;;;;;;;;;21.10;82.50;;;;;;5072772;28;19917;-62
2023/03/10 09:33:02;;;;;;;;;;;21.10;82.90;;;;;;5074444;28;20362;-62
2023/03/10 09:35:28;;;;;;;;;;;21.10;82.90;;;;;;5071962;28;20007;-62
2023/03/10 09:37:53;;;;;;;;;;;21.20;82.90;;;;;;5071344;28;19999;-60
2023/03/10 09:40:19;;;;;;;;;;;21.20;82.70;;;;;;5068146;28;20011;-61
2023/03/10 09:42:50;;;;;;;;;;;21.20;82.30;;;;;;5071718;28;19912;-61
2023/03/10 09:45:22;;;;;;;;;;;21.20;82.50;;;;;;5071930;28;19916;-62
2023/03/10 09:47:59;;;;;;;;;;;21.20;82.50;;;;;;5072731;28;19951;-62
2023/03/10 09:50:25;;;;;;;;;;;21.30;82.50;;;;;;5070244;28;19925;-60
2023/03/10 09:52:56;;;;;;;;;;;21.30;82.50;;;;;;5074367;28;19920;-59
2023/03/10 09:55:24;;;;;;;;;;;21.30;82.50;;;;;;5071337;28;19920;-59
2023/03/10 09:57:51;;;;;;;;;;;21.30;82.50;;;;;;5070332;28;19913;-57
2023/03/10 10:00:25;;;;;;;;;;;21.30;82.50;;;;;;5054834;28;19916;-57
2023/03/10 10:02:57;;;;;;;;;;;21.30;82.50;;;;;;5074043;28;19944;-58
2023/03/10 10:05:24;;;;;;;;;;;21.20;82.50;;;;;;5073327;28;20414;-55
2023/03/10 10:07:53;;;;;;;;;;;21.20;82.50;;;;;;5074133;28;20327;-65
2023/03/10 10:10:20;;;;;;;;;;;21.20;82.60;;;;;;5070342;28;19980;-62
2023/03/10 10:12:48;;;;;;;;;;;21.20;82.50;;;;;;5071429;28;19928;-60
2023/03/10 10:15:16;;;;;;;;;;;21.20;82.70;;;;;;5055942;28;19953;-61
2023/03/10 10:17:54;;;;;;;;;;;21.30;82.60;;;;;;5075399;28;19965;-56
2023/03/10 10:20:19;;;;;;;;;;;21.30;82.60;;;;;;5068309;28;19919;-56
2023/03/10 10:22:45;;;;;;;;;;;21.30;82.60;;;;;;5071974;28;19916;-57
2023/03/10 10:25:16;;;;;;;;;;;21.20;82.60;;;;;;5069190;28;19913;-57
2023/03/10 10:27:42;;;;;;;;;;;21.30;82.60;;;;;;5070905;28;20003;-59
2023/03/10 10:30:26;;;;;;;;;;;21.20;82.60;;;;;;5073833;28;20323;-56
2023/03/10 10:32:59;;;;;;;;;;;21.20;82.50;;;;;;5071230;28;19948;-55
2023/03/10 10:35:26;;;;;;;;;;;21.30;82.50;;;;;;5072713;28;19919;-54
2023/03/10 10:38:04;;;;;;;;;;;21.30;82.40;;;;;;5072753;28;19920;-59
2023/03/10 10:40:34;;;;;;;;;;;21.30;82.50;;;;;;5073578;28;20062;-60
2023/03/10 10:43:00;;;;;;;;;;;21.30;82.30;;;;;;5072962;28;19920;-57
2023/03/10 10:45:32;;;;;;;;;;;21.30;82.30;;;;;;5054828;28;19999;-58
2023/03/10 10:47:57;;;;;;;;;;;21.30;82.20;;;;;;5074081;28;19917;-57
2023/03/10 10:50:27;;;;;;;;;;;21.30;82.20;;;;;;5077166;28;20511;-63
2023/03/10 10:53:12;;;;;;;;;;;21.30;82.30;;;;;;5057967;28;19923;-57
2023/03/10 10:55:38;;;;;;;;;;;21.40;82.30;;;;;;5075245;28;19912;-58
2023/03/10 10:58:05;;;;;;;;;;;21.40;82.40;;;;;;5076166;28;19916;-55
2023/03/10 11:00:37;;;;;;;;;;;21.30;82.20;;;;;;5075592;28;20270;-57
2023/03/10 11:03:19;;;;;;;;;;;21.30;82.20;;;;;;5075760;28;19919;-56
2023/03/10 11:05:44;;;;;;;;;;;21.30;82.20;;;;;;5075528;28;19912;-58
2023/03/10 11:08:17;;;;;;;;;;;21.30;82.30;;;;;;5075817;28;20380;-57
2023/03/10 11:10:45;;;;;;;;;;;21.30;82.20;;;;;;5058374;28;19924;-58
2023/03/10 11:13:11;;;;;;;;;;;21.30;82.30;;;;;;5073534;28;19916;-61
2023/03/10 11:15:43;;;;;;;;;;;21.30;82.30;;;;;;5077990;28;20275;-58
2023/03/10 11:18:08;;;;;;;;;;;21.30;82.30;;;;;;5078878;28;19985;-58
2023/03/10 11:20:40;;;;;;;;;;;21.20;82.30;;;;;;5076907;28;19908;-56
2023/03/10 11:23:05;;;;;;;;;;;21.30;82.30;;;;;;5076819;28;20305;-55
2023/03/10 11:25:39;;;;;;;;;;;21.30;82.30;;;;;;5077015;28;19987;-56
2023/03/10 11:28:27;;;;;;;;;;;21.30;82.10;;;;;;5076476;28;19909;-55
2023/03/10 11:30:52;;;;;;;;;;;21.30;82.20;;;;;;5076863;28;20398;-56
2023/03/10 11:33:33;;;;;;;;;;;21.30;82.00;;;;;;5059025;28;19960;-57
2023/03/10 11:36:09;;;;;;;;;;;21.30;81.90;;;;;;5076769;28;20331;-60
2023/03/10 11:38:39;;;;;;;;;;;21.30;81.80;;;;;;5076632;28;19920;-59
2023/03/10 11:41:24;;;;;;;;;;;21.30;81.80;;;;;;5076010;28;20300;-59
2023/03/10 11:43:59;;;;;;;;;;;21.30;81.70;;;;;;5074736;28;20268;-59
2023/03/10 11:46:28;;;;;;;;;;;21.30;81.70;;;;;;5075758;28;19908;-56
2023/03/10 11:48:58;;;;;;;;;;;21.30;81.60;;;;;;5075353;28;20394;-54
2023/03/10 11:51:23;;;;;;;;;;;21.30;81.60;;;;;;5075480;28;19919;-54
2023/03/10 11:53:50;;;;;;;;;;;21.30;81.60;;;;;;5075661;28;19909;-54
2023/03/10 11:56:17;;;;;;;;;;;21.30;81.70;;;;;;5075341;28;19962;-56
2023/03/10 11:58:43;;;;;;;;;;;21.30;81.70;;;;;;5074563;28;19912;-55
2023/03/10 12:01:10;;;;;;;;;;;21.30;81.60;;;;;;5075228;28;20348;-56
2023/03/10 12:03:50;;;;;;;;;;;21.30;81.60;;;;;;5075142;28;20390;-57
2023/03/10 12:06:18;;;;;;;;;;;21.30;81.40;;;;;;5074889;28;20264;-57
2023/03/10 12:08:45;;;;;;;;;;;21.30;81.40;;;;;;5075262;28;20003;-56
2023/03/10 12:11:18;;;;;;;;;;;21.30;81.40;;;;;;5056736;28;19952;-56
2023/03/10 12:13:46;;;;;;;;;;;21.30;81.30;;;;;;5057000;28;19934;-56
2023/03/10 12:16:15;;;;;;;;;;;21.30;81.30;;;;;;5063481;28;19908;-55
2023/03/10 12:18:41;;;;;;;;;;;21.40;81.30;;;;;;5077160;28;20290;-56
2023/03/10 12:21:36;;;;;;;;;;;21.40;81.30;;;;;;5095244;28;19960;-56
2023/03/10 12:24:03;;;;;;;;;;;21.30;81.20;;;;;;5076956;28;19916;-56
2023/03/10 12:26:37;;;;;;;;;;;21.40;81.20;;;;;;5095135;28;20374;-56
2023/03/10 12:29:21;;;;;;;;;;;21.30;81.10;;;;;;5094658;28;20010;-56
2023/03/10 12:31:48;;;;;;;;;;;21.40;81.10;;;;;;5094548;28;19919;-57
2023/03/10 12:34:13;;;;;;;;;;;21.30;81.20;;;;;;5094680;28;20358;-57
2023/03/10 12:36:42;;;;;;;;;;;21.30;81.20;;;;;;5076585;28;19951;-56
2023/03/10 12:42:23;;;;;;;;;;;21.30;81.00;;;;;;5111477;27;19919;-54
2023/03/10 12:44:52;;;;;;;;;;;21.20;81.10;;;;;;5111561;28;20435;-56
2023/03/10 12:47:24;;;;;;;;;;;21.20;81.20;;;;;;5127674;28;19908;-54
2023/03/10 12:49:53;;;;;;;;;;;21.20;81.20;;;;;;5110135;28;19908;-56
2023/03/10 12:52:19;;;;;;;;;;;21.20;81.20;;;;;;5111772;28;19908;-56
2023/03/10 12:55:03;;;;;;;;;;;21.20;81.20;;;;;;5110391;28;19908;-55
2023/03/10 12:57:31;;;;;;;;;;;21.20;81.10;;;;;;5090856;28;19908;-56
2023/03/10 13:00:05;;;;;;;;;;;21.20;81.10;;;;;;5099899;28;19916;-56
2023/03/10 13:02:34;;;;;;;;;;;21.10;81.10;;;;;;5108962;28;20339;-56
2023/03/10 13:05:16;;;;;;;;;;;21.20;81.70;;;;;;5109446;28;19919;-60
2023/03/10 13:07:44;;;;;;;;;;;21.20;80.80;;;;;;5110258;28;19915;-59
2023/03/10 13:10:15;;;;;;;;;;;21.20;81.00;;;;;;5109622;28;19943;-59
2023/03/10 13:12:47;;;;;;;;;;;21.20;81.00;;;;;;5108816;28;19915;-60
2023/03/10 13:15:20;;;;;;;;;;;21.20;80.90;;;;;;5109799;28;19952;-57
2023/03/10 13:17:46;;;;;;;;;;;21.20;81.00;;;;;;5116293;28;20266;-61
2023/03/10 13:20:17;;;;;;;;;;;21.30;81.10;;;;;;5110821;28;19923;-59
2023/03/10 13:22:53;;;;;;;;;;;21.20;81.00;;;;;;5109726;28;20405;-58
2023/03/10 13:25:19;;;;;;;;;;;21.20;81.00;;;;;;5108744;28;19908;-61
2023/03/10 13:27:44;;;;;;;;;;;21.30;81.10;;;;;;5109467;28;19915;-59
2023/03/10 13:30:18;;;;;;;;;;;21.30;81.00;;;;;;5109494;28;19962;-57
2023/03/10 13:32:50;;;;;;;;;;;21.30;81.10;;;;;;5110725;28;20360;-56
2023/03/10 13:35:21;;;;;;;;;;;21.30;81.10;;;;;;5110936;28;19911;-58
2023/03/10 13:38:02;;;;;;;;;;;21.30;81.10;;;;;;5109235;28;19984;-61
2023/03/10 13:40:27;;;;;;;;;;;21.30;81.20;;;;;;5116940;28;20285;-58
2023/03/10 13:42:53;;;;;;;;;;;21.30;81.40;;;;;;5130376;28;19908;-59
2023/03/10 13:45:23;;;;;;;;;;;21.20;81.40;;;;;;5131005;28;20401;-57
2023/03/10 13:47:49;;;;;;;;;;;21.10;81.50;;;;;;5129655;28;19912;-59
2023/03/10 13:50:15;;;;;;;;;;;21.10;81.70;;;;;;5131158;28;19908;-63
2023/03/10 13:52:51;;;;;;;;;;;21.10;81.80;;;;;;5118818;28;20282;-60
2023/03/10 13:55:16;;;;;;;;;;;21.10;81.80;;;;;;5114704;28;19907;-62
2023/03/10 13:57:42;;;;;;;;;;;21.10;81.90;;;;;;5115903;28;20248;-62
2023/03/10 14:00:15;;;;;;;;;;;21.10;81.90;;;;;;5116149;28;19915;-58
2023/03/10 14:02:43;;;;;;;;;;;21.10;81.80;;;;;;5113875;28;19912;-55
2023/03/10 14:05:28;;;;;;;;;;;21.10;81.90;;;;;;5098754;28;19905;-59
2023/03/10 14:07:59;;;;;;;;;;;21.10;81.70;;;;;;5112272;28;19959;-60
2023/03/10 14:10:25;;;;;;;;;;;21.10;81.80;;;;;;5115848;28;19912;-60
2023/03/10 14:12:51;;;;;;;;;;;21.20;81.70;;;;;;5113926;28;19907;-61
2023/03/10 14:15:23;;;;;;;;;;;21.20;81.60;;;;;;5116984;28;19926;-61
2023/03/10 14:18:12;;;;;;;;;;;21.20;81.50;;;;;;5112673;28;19920;-56
2023/03/10 14:20:38;;;;;;;;;;;21.20;81.40;;;;;;5114294;28;19919;-56